sensor_id;sensor_type;location;lat;lon;timestamp;pressure;altitude;pressure_sealevel;temperature;humidity
54512;BME280;40419;47.438;19.026;2023-01-28T00:00:48;99845.19;;;0.90;100.00
54512;BME280;40419;47.438;19.026;2023-01-28T00:03:13;99851.22;;;0.82;100.00
54512;BME280;40419;47.438;19.026;2023-01-28T00:05:40;99848.28;;;0.85;100.00
54512;BME280;40419;47.438;19.026;2023-01-28T00:08:08;99852.63;;;0.86;100.00
54512;BME280;40419;47.438;19.026;2023-01-28T00:10:38;99850.81;;;0.86;100.00
54512;BME280;40419;47.438;19.026;2023-01-28T00:13:07;99855.28;;;0.86;100.00
54512;BME280;40419;47.438;19.026;2023-01-28T00:15:32;99855.00;;;0.89;100.00
54512;BME280;40419;47.438;19.026;2023-01-28T00:17:58;99854.44;;;0.85;100.00
54512;BME280;40419;47.438;19.026;2023-01-28T00:20:26;99843.25;;;0.82;100.00
54512;BME280;40419;47.438;19.026;2023-01-28T00:22:51;99851.78;;;0.76;100.00
54512;BME280;40419;47.438;19.026;2023-01-28T00:25:17;99861.16;;;0.80;100.00
54512;BME280;40419;47.438;19.026;2023-01-28T00:27:43;99851.94;;;0.84;100.00
54512;BME280;40419;47.438;19.026;2023-01-28T00:30:10;99850.50;;;0.80;100.00
54512;BME280;40419;47.438;19.026;2023-01-28T00:32:38;99854.88;;;0.81;100.00
54512;BME280;40419;47.438;19.026;2023-01-28T00:35:03;99858.09;;;0.84;100.00
54512;BME280;40419;47.438;19.026;2023-01-28T00:37:29;99856.56;;;0.82;100.00
54512;BME280;40419;47.438;19.026;2023-01-28T00:39:57;99852.22;;;0.81;100.00
54512;BME280;40419;47.438;19.026;2023-01-28T00:42:23;99863.44;;;0.75;100.00
54512;BME280;40419;47.438;19.026;2023-01-28T00:44:48;99859.63;;;0.87;100.00
54512;BME280;40419;47.438;19.026;2023-01-28T00:47:16;99870.31;;;0.87;100.00
54512;BME280;40419;47.438;19.026;2023-01-28T00:49:44;99871.84;;;0.80;100.00
54512;BME280;40419;47.438;19.026;2023-01-28T00:52:12;99872.97;;;0.87;100.00
54512;BME280;40419;47.438;19.026;2023-01-28T00:54:42;99877.59;;;0.95;100.00
54512;BME280;40419;47.438;19.026;2023-01-28T00:57:13;99881.66;;;0.89;100.00
54512;BME280;40419;47.438;19.026;2023-01-28T00:59:43;99880.41;;;0.93;100.00
54512;BME280;40419;47.438;19.026;2023-01-28T01:02:08;99880.41;;;0.93;100.00
54512;BME280;40419;47.438;19.026;2023-01-28T01:04:40;99869.31;;;0.88;100.00
54512;BME280;40419;47.438;19.026;2023-01-28T01:07:05;99875.22;;;0.82;100.00
54512;BME280;40419;47.438;19.026;2023-01-28T01:09:31;99872.13;;;0.86;100.00
54512;BME280;40419;47.438;19.026;2023-01-28T01:11:59;99875.78;;;0.95;100.00
54512;BME280;40419;47.438;19.026;2023-01-28T01:14:29;99871.13;;;0.87;100.00
54512;BME280;40419;47.438;19.026;2023-01-28T01:16:55;99873.25;;;1.03;100.00
54512;BME280;40419;47.438;19.026;2023-01-28T01:19:23;99874.94;;;0.95;100.00
54512;BME280;40419;47.438;19.026;2023-01-28T01:21:48;99875.38;;;1.00;100.00
54512;BME280;40419;47.438;19.026;2023-01-28T01:24:14;99875.78;;;1.05;95.93
54512;BME280;40419;47.438;19.026;2023-01-28T01:26:40;99873.94;;;1.05;95.57
54512;BME280;40419;47.438;19.026;2023-01-28T01:29:05;99882.94;;;0.95;98.36
54512;BME280;40419;47.438;19.026;2023-01-28T01:31:34;99879.00;;;0.99;98.72
54512;BME280;40419;47.438;19.026;2023-01-28T01:33:59;99875.78;;;0.95;96.96
54512;BME280;40419;47.438;19.026;2023-01-28T01:36:32;99870.75;;;0.92;96.38
54512;BME280;40419;47.438;19.026;2023-01-28T01:38:57;99873.81;;;1.07;95.37
54512;BME280;40419;47.438;19.026;2023-01-28T01:41:30;99880.41;;;0.93;97.54
54512;BME280;40419;47.438;19.026;2023-01-28T01:44:01;99877.19;;;0.90;98.30
54512;BME280;40419;47.438;19.026;2023-01-28T01:48:56;99884.19;;;0.91;96.88
54512;BME280;40419;47.438;19.026;2023-01-28T01:51:29;99889.94;;;0.86;98.37
54512;BME280;40419;47.438;19.026;2023-01-28T01:53:57;99885.03;;;0.91;98.51
54512;BME280;40419;47.438;19.026;2023-01-28T01:56:28;99893.03;;;0.91;98.30
54512;BME280;40419;47.438;19.026;2023-01-28T01:58:59;99886.72;;;0.82;99.36
54512;BME280;40419;47.438;19.026;2023-01-28T02:01:29;99894.00;;;0.90;100.00
54512;BME280;40419;47.438;19.026;2023-01-28T02:04:08;99885.59;;;0.85;100.00
54512;BME280;40419;47.438;19.026;2023-01-28T02:06:38;99888.84;;;0.79;100.00
54512;BME280;40419;47.438;19.026;2023-01-28T02:09:19;99882.50;;;0.80;100.00
54512;BME280;40419;47.438;19.026;2023-01-28T02:11:53;99884.75;;;0.84;100.00
54512;BME280;40419;47.438;19.026;2023-01-28T02:14:24;99885.59;;;0.75;100.00
54512;BME280;40419;47.438;19.026;2023-01-28T02:16:53;99895.69;;;0.72;100.00
54512;BME280;40419;47.438;19.026;2023-01-28T02:19:21;99891.78;;;0.85;100.00
54512;BME280;40419;47.438;19.026;2023-01-28T02:22:22;99885.16;;;0.70;100.00
54512;BME280;40419;47.438;19.026;2023-01-28T02:30:40;99881.53;;;0.81;100.00
54512;BME280;40419;47.438;19.026;2023-01-28T02:33:17;99876.19;;;0.81;100.00
54512;BME280;40419;47.438;19.026;2023-01-28T02:35:54;99882.22;;;0.83;100.00
54512;BME280;40419;47.438;19.026;2023-01-28T02:38:25;99872.97;;;0.87;100.00
54512;BME280;40419;47.438;19.026;2023-01-28T02:41:00;99867.38;;;0.80;100.00
54512;BME280;40419;47.438;19.026;2023-01-28T02:45:55;99861.44;;;0.77;100.00
54512;BME280;40419;47.438;19.026;2023-01-28T02:48:40;99874.91;;;0.75;100.00
54512;BME280;40419;47.438;19.026;2023-01-28T02:51:22;99867.38;;;0.80;100.00
54512;BME280;40419;47.438;19.026;2023-01-28T02:54:11;99874.38;;;0.72;100.00
54512;BME280;40419;47.438;19.026;2023-01-28T02:56:47;99875.78;;;0.76;100.00
54512;BME280;40419;47.438;19.026;2023-01-28T02:59:27;99872.13;;;0.86;100.00
54512;BME280;40419;47.438;19.026;2023-01-28T03:02:19;99865.94;;;0.86;100.00
54512;BME280;40419;47.438;19.026;2023-01-28T03:07:24;99873.94;;;0.76;100.00
54512;BME280;40419;47.438;19.026;2023-01-28T03:09:53;99863.16;;;0.78;100.00
54512;BME280;40419;47.438;19.026;2023-01-28T03:12:25;99866.38;;;0.72;100.00
54512;BME280;40419;47.438;19.026;2023-01-28T03:15:24;99879.00;;;0.79;100.00
54512;BME280;40419;47.438;19.026;2023-01-28T03:24:14;99871.97;;;0.68;100.00
54512;BME280;40419;47.438;19.026;2023-01-28T03:27:05;99874.78;;;0.67;100.00
54512;BME280;40419;47.438;19.026;2023-01-28T03:30:02;99874.66;;;0.68;100.00
54512;BME280;40419;47.438;19.026;2023-01-28T03:32:52;99873.50;;;0.61;100.00
54512;BME280;40419;47.438;19.026;2023-01-28T03:35:37;99880.66;;;0.61;100.00
54512;BME280;40419;47.438;19.026;2023-01-28T03:38:22;99885.13;;;0.60;100.00
54512;BME280;40419;47.438;19.026;2023-01-28T03:40:54;99880.66;;;0.61;100.00
54512;BME280;40419;47.438;19.026;2023-01-28T03:43:23;99886.69;;;0.63;100.00
54512;BME280;40419;47.438;19.026;2023-01-28T03:45:49;99884.72;;;0.65;100.00
54512;BME280;40419;47.438;19.026;2023-01-28T03:48:23;99879.25;;;0.66;100.00
54512;BME280;40419;47.438;19.026;2023-01-28T03:50:49;99889.22;;;0.64;100.00
54512;BME280;40419;47.438;19.026;2023-01-28T03:53:15;99882.88;;;0.56;100.00
54512;BME280;40419;47.438;19.026;2023-01-28T03:55:47;99899.75;;;0.56;100.00
54512;BME280;40419;47.438;19.026;2023-01-28T03:58:17;99896.81;;;0.59;100.00
54512;BME280;40419;47.438;19.026;2023-01-28T04:00:43;99886.13;;;0.69;100.00
54512;BME280;40419;47.438;19.026;2023-01-28T04:03:13;99885.16;;;0.70;100.00
54512;BME280;40419;47.438;19.026;2023-01-28T04:08:34;99885.44;;;0.67;100.00
54512;BME280;40419;47.438;19.026;2023-01-28T04:11:28;99883.34;;;0.70;100.00
54512;BME280;40419;47.438;19.026;2023-01-28T04:13:55;99879.25;;;0.66;100.00
54512;BME280;40419;47.438;19.026;2023-01-28T04:16:23;99881.09;;;0.56;100.00
54512;BME280;40419;47.438;19.026;2023-01-28T04:18:52;99879.66;;;0.52;100.00
54512;BME280;40419;47.438;19.026;2023-01-28T04:21:18;99883.59;;;0.48;100.00
54512;BME280;40419;47.438;19.026;2023-01-28T04:23:44;99893.69;;;0.54;100.00
54512;BME280;40419;47.438;19.026;2023-01-28T04:26:13;99887.13;;;0.58;100.00
54512;BME280;40419;47.438;19.026;2023-01-28T04:28:39;99890.88;;;0.56;100.00
54512;BME280;40419;47.438;19.026;2023-01-28T04:31:04;99900.00;;;0.53;100.00
54512;BME280;40419;47.438;19.026;2023-01-28T04:33:52;99900.97;;;0.52;100.00
54512;BME280;40419;47.438;19.026;2023-01-28T04:36:23;99894.56;;;0.55;100.00
54512;BME280;40419;47.438;19.026;2023-01-28T04:39:20;99900.00;;;0.53;100.00
54512;BME280;40419;47.438;19.026;2023-01-28T04:42:08;99894.78;;;0.42;100.00
54512;BME280;40419;47.438;19.026;2023-01-28T04:44:52;99894.50;;;0.45;100.00
54512;BME280;40419;47.438;19.026;2023-01-28T04:47:38;99894.81;;;0.51;100.00
54512;BME280;40419;47.438;19.026;2023-01-28T04:50:33;99903.78;;;0.50;100.00
54512;BME280;40419;47.438;19.026;2023-01-28T04:53:19;99900.72;;;0.55;100.00
54512;BME280;40419;47.438;19.026;2023-01-28T04:55:56;99909.94;;;0.51;100.00
54512;BME280;40419;47.438;19.026;2023-01-28T04:58:28;99905.75;;;0.58;100.00
54512;BME280;40419;47.438;19.026;2023-01-28T05:00:59;99908.56;;;0.47;100.00
54512;BME280;40419;47.438;19.026;2023-01-28T05:03:25;99916.66;;;0.45;100.00
54512;BME280;40419;47.438;19.026;2023-01-28T05:05:53;99914.69;;;0.38;100.00
54512;BME280;40419;47.438;19.026;2023-01-28T05:08:42;99918.41;;;0.56;100.00
54512;BME280;40419;47.438;19.026;2023-01-28T05:11:07;99925.25;;;0.49;100.00
54512;BME280;40419;47.438;19.026;2023-01-28T05:13:33;99920.19;;;0.46;100.00
54512;BME280;40419;47.438;19.026;2023-01-28T05:15:58;99922.56;;;0.49;100.00
54512;BME280;40419;47.438;19.026;2023-01-28T05:18:24;99922.31;;;0.52;100.00
54512;BME280;40419;47.438;19.026;2023-01-28T05:21:07;99928.19;;;0.56;100.00
54512;BME280;40419;47.438;19.026;2023-01-28T05:23:38;99926.75;;;0.42;100.00
54512;BME280;40419;47.438;19.026;2023-01-28T05:26:04;99937.13;;;0.45;100.00
54512;BME280;40419;47.438;19.026;2023-01-28T05:28:35;99933.19;;;0.39;100.00
54512;BME280;40419;47.438;19.026;2023-01-28T05:31:04;99935.19;;;0.47;100.00
54512;BME280;40419;47.438;19.026;2023-01-28T05:33:33;99926.19;;;0.38;100.00
54512;BME280;40419;47.438;19.026;2023-01-28T05:36:00;99944.13;;;0.36;100.00
54512;BME280;40419;47.438;19.026;2023-01-28T05:38:26;99934.06;;;0.40;100.00
54512;BME280;40419;47.438;19.026;2023-01-28T05:40:52;99932.22;;;0.40;100.00
54512;BME280;40419;47.438;19.026;2023-01-28T05:43:18;99938.41;;;0.50;100.00
54512;BME280;40419;47.438;19.026;2023-01-28T05:45:50;99938.09;;;0.44;100.00
54512;BME280;40419;47.438;19.026;2023-01-28T05:48:22;99946.91;;;0.34;100.00
54512;BME280;40419;47.438;19.026;2023-01-28T05:51:17;99940.47;;;0.37;100.00
54512;BME280;40419;47.438;19.026;2023-01-28T05:53:50;99948.91;;;0.42;100.00
54512;BME280;40419;47.438;19.026;2023-01-28T05:56:16;99955.34;;;0.40;100.00
54512;BME280;40419;47.438;19.026;2023-01-28T05:58:44;99954.94;;;0.44;100.00
54512;BME280;40419;47.438;19.026;2023-01-28T06:01:10;99952.44;;;0.52;100.00
54512;BME280;40419;47.438;19.026;2023-01-28T06:03:40;99952.09;;;0.36;100.00
54512;BME280;40419;47.438;19.026;2023-01-28T06:06:08;99963.06;;;0.43;100.00
54512;BME280;40419;47.438;19.026;2023-01-28T06:08:34;99957.88;;;0.41;100.00
54512;BME280;40419;47.438;19.026;2023-01-28T06:11:04;99957.00;;;0.31;100.00
54512;BME280;40419;47.438;19.026;2023-01-28T06:13:32;99960.38;;;0.33;100.00
54512;BME280;40419;47.438;19.026;2023-01-28T06:16:03;99971.88;;;0.33;100.00
54512;BME280;40419;47.438;19.026;2023-01-28T06:18:37;99966.50;;;0.24;100.00
54512;BME280;40419;47.438;19.026;2023-01-28T06:21:03;99960.22;;;0.34;100.00
54512;BME280;40419;47.438;19.026;2023-01-28T06:23:29;99973.53;;;0.34;100.00
54512;BME280;40419;47.438;19.026;2023-01-28T06:25:55;99975.81;;;0.39;100.00
54512;BME280;40419;47.438;19.026;2023-01-28T06:28:24;99969.75;;;0.27;100.00
54512;BME280;40419;47.438;19.026;2023-01-28T06:30:52;99969.91;;;0.35;100.00
54512;BME280;40419;47.438;19.026;2023-01-28T06:33:22;99981.66;;;0.33;100.00
54512;BME280;40419;47.438;19.026;2023-01-28T06:35:53;99978.53;;;0.18;100.00
54512;BME280;40419;47.438;19.026;2023-01-28T06:38:21;99985.28;;;0.22;100.00
54512;BME280;40419;47.438;19.026;2023-01-28T06:40:51;99987.31;;;0.40;100.00
54512;BME280;40419;47.438;19.026;2023-01-28T06:43:17;99997.13;;;0.39;100.00
54512;BME280;40419;47.438;19.026;2023-01-28T06:45:42;99995.72;;;0.35;100.00
54512;BME280;40419;47.438;19.026;2023-01-28T06:48:08;99998.94;;;0.39;100.00
54512;BME280;40419;47.438;19.026;2023-01-28T06:50:36;100000.09;;;0.46;100.00
54512;BME280;40419;47.438;19.026;2023-01-28T06:53:01;100005.16;;;0.49;100.00
54512;BME280;40419;47.438;19.026;2023-01-28T06:55:29;100013.97;;;0.40;100.00
54512;BME280;40419;47.438;19.026;2023-01-28T06:57:59;100013.69;;;0.43;100.00
54512;BME280;40419;47.438;19.026;2023-01-28T07:00:25;100015.81;;;0.49;100.00
54512;BME280;40419;47.438;19.026;2023-01-28T07:02:54;100023.81;;;0.49;100.00
54512;BME280;40419;47.438;19.026;2023-01-28T07:05:20;100023.13;;;0.47;100.00
54512;BME280;40419;47.438;19.026;2023-01-28T07:07:47;100023.13;;;0.47;100.00
54512;BME280;40419;47.438;19.026;2023-01-28T07:10:20;100027.31;;;0.49;100.00
54512;BME280;40419;47.438;19.026;2023-01-28T07:12:46;100026.06;;;0.53;100.00
54512;BME280;40419;47.438;19.026;2023-01-28T07:15:14;100030.56;;;0.53;100.00
54512;BME280;40419;47.438;19.026;2023-01-28T07:17:44;100036.88;;;0.52;100.00
54512;BME280;40419;47.438;19.026;2023-01-28T07:20:15;100034.09;;;0.63;100.00
54512;BME280;40419;47.438;19.026;2023-01-28T07:22:45;100039.69;;;0.60;100.00
54512;BME280;40419;47.438;19.026;2023-01-28T07:25:12;100044.19;;;0.60;100.00
54512;BME280;40419;47.438;19.026;2023-01-28T07:27:38;100044.25;;;0.69;100.00
54512;BME280;40419;47.438;19.026;2023-01-28T07:30:07;100051.16;;;0.82;100.00
54512;BME280;40419;47.438;19.026;2023-01-28T07:32:32;100051.50;;;0.67;100.00
54512;BME280;40419;47.438;19.026;2023-01-28T07:34:58;100049.81;;;0.66;100.00
54512;BME280;40419;47.438;19.026;2023-01-28T07:37:26;100050.34;;;0.60;100.00
54512;BME280;40419;47.438;19.026;2023-01-28T07:39:51;100053.47;;;0.65;100.00
54512;BME280;40419;47.438;19.026;2023-01-28T07:42:17;100059.06;;;0.62;100.00
54512;BME280;40419;47.438;19.026;2023-01-28T07:44:45;100052.25;;;0.79;100.00
54512;BME280;40419;47.438;19.026;2023-01-28T07:47:11;100052.94;;;0.72;100.00
54512;BME280;40419;47.438;19.026;2023-01-28T07:49:36;100052.97;;;0.81;100.00
54512;BME280;40419;47.438;19.026;2023-01-28T07:52:05;100053.69;;;0.83;100.00
54512;BME280;40419;47.438;19.026;2023-01-28T07:54:31;100053.75;;;1.13;100.00
54512;BME280;40419;47.438;19.026;2023-01-28T07:56:56;100053.56;;;0.85;100.00
54512;BME280;40419;47.438;19.026;2023-01-28T07:59:22;100054.72;;;1.02;100.00
54512;BME280;40419;47.438;19.026;2023-01-28T08:01:51;100055.13;;;0.97;100.00
54512;BME280;40419;47.438;19.026;2023-01-28T08:04:18;100068.72;;;0.94;100.00
54512;BME280;40419;47.438;19.026;2023-01-28T08:06:44;100060.47;;;0.97;100.00
54512;BME280;40419;47.438;19.026;2023-01-28T08:09:09;100069.16;;;0.99;100.00
54512;BME280;40419;47.438;19.026;2023-01-28T08:11:37;100073.81;;;1.07;100.00
54512;BME280;40419;47.438;19.026;2023-01-28T08:14:06;100071.94;;;0.98;100.00
54512;BME280;40419;47.438;19.026;2023-01-28T08:16:36;100066.75;;;0.96;100.00
54512;BME280;40419;47.438;19.026;2023-01-28T08:19:02;100079.88;;;1.09;100.00
54512;BME280;40419;47.438;19.026;2023-01-28T08:21:27;100069.63;;;1.14;100.00
54512;BME280;40419;47.438;19.026;2023-01-28T08:23:55;100067.69;;;1.16;100.00
54512;BME280;40419;47.438;19.026;2023-01-28T08:26:21;100072.59;;;1.21;100.00
54512;BME280;40419;47.438;19.026;2023-01-28T08:28:49;100074.13;;;1.14;100.00
54512;BME280;40419;47.438;19.026;2023-01-28T08:31:17;100078.59;;;1.13;100.00
54512;BME280;40419;47.438;19.026;2023-01-28T08:33:42;100083.91;;;1.13;100.00
54512;BME280;40419;47.438;19.026;2023-01-28T08:36:12;100086.59;;;1.13;100.00
54512;BME280;40419;47.438;19.026;2023-01-28T08:38:38;100090.13;;;1.14;100.00
54512;BME280;40419;47.438;19.026;2023-01-28T08:41:03;100091.97;;;1.23;100.00
54512;BME280;40419;47.438;19.026;2023-01-28T08:43:31;100091.47;;;0.98;100.00
54512;BME280;40419;47.438;19.026;2023-01-28T08:45:59;100094.97;;;0.99;100.00
54512;BME280;40419;47.438;19.026;2023-01-28T08:48:27;100092.75;;;1.04;100.00
54512;BME280;40419;47.438;19.026;2023-01-28T08:50:57;100096.94;;;0.97;100.00
54512;BME280;40419;47.438;19.026;2023-01-28T08:53:28;100096.97;;;1.06;100.00
54512;BME280;40419;47.438;19.026;2023-01-28T08:55:54;100101.97;;;0.90;100.00
54512;BME280;40419;47.438;19.026;2023-01-28T08:58:22;100099.63;;;1.06;100.00
54512;BME280;40419;47.438;19.026;2023-01-28T09:00:51;100109.22;;;1.19;100.00
54512;BME280;40419;47.438;19.026;2023-01-28T09:03:17;100104.47;;;1.22;100.00
54512;BME280;40419;47.438;19.026;2023-01-28T09:05:43;100109.81;;;0.82;100.00
54512;BME280;40419;47.438;19.026;2023-01-28T09:08:11;100106.34;;;1.01;100.00
54512;BME280;40419;47.438;19.026;2023-01-28T09:10:37;100108.44;;;0.97;100.00
54512;BME280;40419;47.438;19.026;2023-01-28T09:13:05;100109.91;;;1.11;100.00
54512;BME280;40419;47.438;19.026;2023-01-28T09:15:36;100110.00;;;1.00;100.00
54512;BME280;40419;47.438;19.026;2023-01-28T09:18:02;100110.59;;;1.13;100.00
54512;BME280;40419;47.438;19.026;2023-01-28T09:20:28;100120.19;;;1.26;100.00
54512;BME280;40419;47.438;19.026;2023-01-28T09:22:57;100121.88;;;1.27;100.00
54512;BME280;40419;47.438;19.026;2023-01-28T09:25:25;100124.66;;;1.15;100.00
54512;BME280;40419;47.438;19.026;2023-01-28T09:27:56;100115.97;;;1.23;100.00
54512;BME280;40419;47.438;19.026;2023-01-28T09:30:27;100116.66;;;1.15;100.00
54512;BME280;40419;47.438;19.026;2023-01-28T09:32:55;100131.56;;;1.28;100.00
54512;BME280;40419;47.438;19.026;2023-01-28T09:35:23;100126.09;;;1.29;100.00
54512;BME280;40419;47.438;19.026;2023-01-28T09:37:55;100121.09;;;1.05;100.00
54512;BME280;40419;47.438;19.026;2023-01-28T09:40:39;100126.03;;;1.10;100.00
54512;BME280;40419;47.438;19.026;2023-01-28T09:45:55;100123.97;;;1.23;100.00
54512;BME280;40419;47.438;19.026;2023-01-28T09:48:29;100119.72;;;1.11;100.00
54512;BME280;40419;47.438;19.026;2023-01-28T09:51:00;100117.91;;;1.11;100.00
54512;BME280;40419;47.438;19.026;2023-01-28T09:53:31;100113.25;;;1.13;100.00
54512;BME280;40419;47.438;19.026;2023-01-28T09:56:05;100114.88;;;1.26;100.00
54512;BME280;40419;47.438;19.026;2023-01-28T09:58:34;100116.84;;;1.33;100.00
54512;BME280;40419;47.438;19.026;2023-01-28T10:04:17;100109.25;;;1.29;100.00
54512;BME280;40419;47.438;19.026;2023-01-28T10:12:41;100116.78;;;1.74;100.00
54512;BME280;40419;47.438;19.026;2023-01-28T10:18:10;100114.09;;;1.84;100.00
54512;BME280;40419;47.438;19.026;2023-01-28T10:20:42;100104.38;;;1.83;100.00
54512;BME280;40419;47.438;19.026;2023-01-28T10:23:25;100116.34;;;1.79;100.00
54512;BME280;40419;47.438;19.026;2023-01-28T10:25:57;100115.63;;;1.76;100.00
54512;BME280;40419;47.438;19.026;2023-01-28T10:28:27;100117.16;;;1.59;100.00
54512;BME280;40419;47.438;19.026;2023-01-28T10:30:53;100114.22;;;1.53;100.00
54512;BME280;40419;47.438;19.026;2023-01-28T10:33:36;100116.75;;;1.54;100.00
54512;BME280;40419;47.438;19.026;2023-01-28T10:36:02;100116.47;;;1.57;100.00
54512;BME280;40419;47.438;19.026;2023-01-28T10:38:29;100116.47;;;1.57;100.00
54512;BME280;40419;47.438;19.026;2023-01-28T10:41:08;100113.09;;;1.65;100.00
54512;BME280;40419;47.438;19.026;2023-01-28T10:43:37;100117.03;;;1.81;100.00
54512;BME280;40419;47.438;19.026;2023-01-28T10:49:05;100110.72;;;1.82;100.00
54512;BME280;40419;47.438;19.026;2023-01-28T10:51:40;100107.91;;;1.93;100.00
54512;BME280;40419;47.438;19.026;2023-01-28T10:56:54;100109.03;;;1.81;100.00
54512;BME280;40419;47.438;19.026;2023-01-28T10:59:29;100115.38;;;1.89;100.00
54512;BME280;40419;47.438;19.026;2023-01-28T11:02:01;100109.31;;;1.97;100.00
54512;BME280;40419;47.438;19.026;2023-01-28T11:35:36;100113.53;;;2.09;100.00
54512;BME280;40419;47.438;19.026;2023-01-28T11:38:16;100107.31;;;2.19;100.00
54512;BME280;40419;47.438;19.026;2023-01-28T11:40:49;100104.06;;;2.35;100.00
54512;BME280;40419;47.438;19.026;2023-01-28T11:43:20;100100.28;;;2.37;100.00
54512;BME280;40419;47.438;19.026;2023-01-28T11:51:41;100096.91;;;2.16;100.00
54512;BME280;40419;47.438;19.026;2023-01-28T11:57:41;100089.34;;;2.21;100.00
54512;BME280;40419;47.438;19.026;2023-01-28T12:00:34;100089.59;;;2.27;100.00
54512;BME280;40419;47.438;19.026;2023-01-28T12:05:54;100082.41;;;2.38;100.00
54512;BME280;40419;47.438;19.026;2023-01-28T12:08:35;100082.69;;;2.25;100.00
54512;BME280;40419;47.438;19.026;2023-01-28T12:19:19;100076.84;;;2.11;96.91
54512;BME280;40419;47.438;19.026;2023-01-28T12:40:37;100077.75;;;2.50;91.73
54512;BME280;40419;47.438;19.026;2023-01-28T12:43:27;100087.41;;;2.51;90.21
54512;BME280;40419;47.438;19.026;2023-01-28T12:46:57;100085.81;;;2.30;92.11
54512;BME280;40419;47.438;19.026;2023-01-28T12:51:31;100095.56;;;2.59;90.88
54512;BME280;40419;47.438;19.026;2023-01-28T12:54:04;100088.25;;;2.61;88.85
54512;BME280;40419;47.438;19.026;2023-01-28T12:56:41;100088.28;;;2.41;91.01
54512;BME280;40419;47.438;19.026;2023-01-28T12:59:15;100090.66;;;2.54;89.90
54512;BME280;40419;47.438;19.026;2023-01-28T13:01:52;100094.16;;;2.64;90.11
54512;BME280;40419;47.438;19.026;2023-01-28T13:04:56;100093.44;;;2.62;89.55
54512;BME280;40419;47.438;19.026;2023-01-28T13:09:52;100098.34;;;2.67;89.06
54512;BME280;40419;47.438;19.026;2023-01-28T13:12:20;100103.09;;;2.73;86.69
54512;BME280;40419;47.438;19.026;2023-01-28T13:14:52;100102.31;;;2.63;89.74
54512;BME280;40419;47.438;19.026;2023-01-28T13:17:27;100105.69;;;2.65;88.30
54512;BME280;40419;47.438;19.026;2023-01-28T13:19:53;100113.59;;;2.57;88.46
54512;BME280;40419;47.438;19.026;2023-01-28T13:22:31;100110.06;;;2.66;88.14
54512;BME280;40419;47.438;19.026;2023-01-28T13:27:40;100103.69;;;2.77;88.43
54512;BME280;40419;47.438;19.026;2023-01-28T13:33:24;100116.47;;;2.73;88.68
54512;BME280;40419;47.438;19.026;2023-01-28T13:35:53;100114.53;;;2.75;88.69
54512;BME280;40419;47.438;19.026;2023-01-28T13:38:20;100109.47;;;2.72;87.75
54512;BME280;40419;47.438;19.026;2023-01-28T13:40:57;100118.59;;;2.79;87.93
54512;BME280;40419;47.438;19.026;2023-01-28T13:43:37;100122.19;;;2.88;87.99
54512;BME280;40419;47.438;19.026;2023-01-28T13:46:10;100124.78;;;2.80;88.46
54512;BME280;40419;47.438;19.026;2023-01-28T13:48:52;100132.34;;;2.84;87.69
54512;BME280;40419;47.438;19.026;2023-01-28T13:51:34;100131.47;;;2.94;86.63
54512;BME280;40419;47.438;19.026;2023-01-28T13:54:18;100126.19;;;2.84;89.98
54512;BME280;40419;47.438;19.026;2023-01-28T14:02:37;100139.41;;;2.86;87.48
54512;BME280;40419;47.438;19.026;2023-01-28T14:18:59;100141.72;;;2.98;85.40
54512;BME280;40419;47.438;19.026;2023-01-28T14:21:31;100142.66;;;2.79;86.50
54512;BME280;40419;47.438;19.026;2023-01-28T14:24:01;100149.28;;;2.65;89.34
54512;BME280;40419;47.438;19.026;2023-01-28T14:26:54;100147.03;;;2.71;88.73
54512;BME280;40419;47.438;19.026;2023-01-28T14:32:02;100145.50;;;2.68;94.21
54512;BME280;40419;47.438;19.026;2023-01-28T14:34:33;100156.34;;;2.66;95.61
54512;BME280;40419;47.438;19.026;2023-01-28T14:37:06;100155.34;;;2.68;96.31
54512;BME280;40419;47.438;19.026;2023-01-28T14:39:50;100156.38;;;2.57;96.95
54512;BME280;40419;47.438;19.026;2023-01-28T14:44:50;100154.25;;;2.51;99.06
54512;BME280;40419;47.438;19.026;2023-01-28T14:47:26;100158.22;;;2.46;98.80
54512;BME280;40419;47.438;19.026;2023-01-28T14:52:55;100166.22;;;2.46;100.00
54512;BME280;40419;47.438;19.026;2023-01-28T14:58:08;100171.00;;;2.43;100.00
54512;BME280;40419;47.438;19.026;2023-01-28T15:00:36;100175.38;;;2.34;100.00
54512;BME280;40419;47.438;19.026;2023-01-28T15:03:19;100175.66;;;2.41;100.00
54512;BME280;40419;47.438;19.026;2023-01-28T15:05:47;100171.84;;;2.34;100.00
54512;BME280;40419;47.438;19.026;2023-01-28T15:08:21;100178.06;;;2.24;100.00
54512;BME280;40419;47.438;19.026;2023-01-28T15:10:52;100179.91;;;2.24;100.00
54512;BME280;40419;47.438;19.026;2023-01-28T15:13:29;100180.31;;;2.19;100.00
54512;BME280;40419;47.438;19.026;2023-01-28T15:15:57;100182.84;;;2.21;100.00
54512;BME280;40419;47.438;19.026;2023-01-28T15:18:45;100185.81;;;2.18;100.00
54512;BME280;40419;47.438;19.026;2023-01-28T15:21:14;100184.78;;;2.19;100.00
54512;BME280;40419;47.438;19.026;2023-01-28T15:23:54;100187.06;;;2.13;100.00
54512;BME280;40419;47.438;19.026;2023-01-28T15:26:26;100191.84;;;2.10;100.00
54512;BME280;40419;47.438;19.026;2023-01-28T15:28:54;100190.84;;;2.11;100.00
54512;BME280;40419;47.438;19.026;2023-01-28T15:31:21;100212.09;;;2.03;100.00
54512;BME280;40419;47.438;19.026;2023-01-28T15:34:18;100211.53;;;2.09;100.00
54512;BME280;40419;47.438;19.026;2023-01-28T15:36:44;100204.63;;;2.06;100.00
54512;BME280;40419;47.438;19.026;2023-01-28T15:39:19;100216.56;;;2.02;100.00
54512;BME280;40419;47.438;19.026;2023-01-28T15:41:54;100213.47;;;1.97;100.00